createdAt,value
2023-06-28T00:03:14.816Z,67.93
2023-06-28T00:11:38.093Z,67.80
2023-06-28T00:20:07.459Z,68.02
2023-06-28T00:28:30.562Z,67.94
2023-06-28T00:36:56.884Z,67.84
2023-06-28T00:45:20.056Z,67.77
2023-06-28T00:53:45.741Z,67.86
2023-06-28T01:02:12.562Z,67.85
2023-06-28T01:10:39.455Z,67.86
2023-06-28T01:19:06.053Z,68.00
2023-06-28T01:27:30.031Z,67.84
2023-06-28T01:35:53.025Z,67.71
2023-06-28T01:44:16.441Z,67.91
2023-06-28T01:52:39.610Z,67.84
2023-06-28T02:01:02.686Z,67.78
2023-06-28T02:09:25.711Z,67.73
2023-06-28T02:17:51.442Z,67.76
2023-06-28T02:26:15.418Z,67.70
2023-06-28T02:34:39.413Z,67.95
2023-06-28T02:43:03.860Z,67.66
2023-06-28T02:51:27.133Z,67.93
2023-06-28T02:59:50.775Z,67.74
2023-06-28T03:08:14.422Z,67.84
2023-06-28T03:16:38.633Z,67.83
2023-06-28T03:25:01.766Z,67.84
2023-06-28T03:33:25.242Z,68.04
2023-06-28T03:41:48.258Z,68.20
2023-06-28T03:50:11.579Z,68.25
2023-06-28T03:58:34.793Z,68.23
2023-06-28T04:07:02.088Z,68.39
2023-06-28T04:15:25.128Z,68.54
2023-06-28T04:23:48.074Z,68.56
2023-06-28T04:32:26.268Z,68.74
2023-06-28T04:40:49.551Z,68.61
2023-06-28T04:49:12.559Z,68.58
2023-06-28T04:57:35.462Z,68.97
2023-06-28T05:05:58.426Z,69.04
2023-06-28T05:14:21.538Z,69.14
2023-06-28T05:22:51.433Z,69.23
2023-06-28T05:31:14.534Z,69.46
2023-06-28T05:39:37.554Z,69.51
2023-06-28T05:48:01.226Z,69.57
2023-06-28T05:56:25.713Z,69.64
2023-06-28T06:04:48.801Z,69.55
2023-06-28T06:13:11.762Z,69.68
2023-06-28T06:21:34.806Z,69.86
2023-06-28T06:29:57.879Z,70.02
2023-06-28T06:38:22.433Z,70.04
2023-06-28T06:46:46.235Z,70.29
2023-06-28T06:55:11.093Z,70.21
2023-06-28T07:03:34.252Z,70.41
2023-06-28T07:12:00.430Z,70.36
2023-06-28T07:20:23.962Z,70.45
2023-06-28T07:28:47.685Z,70.63
2023-06-28T07:37:11.513Z,70.41
2023-06-28T07:45:35.574Z,70.43
2023-06-28T07:53:58.743Z,70.62
2023-06-28T08:02:21.945Z,70.60
2023-06-28T08:10:47.157Z,70.54
2023-06-28T08:19:12.200Z,70.54
2023-06-28T08:27:37.456Z,70.93
2023-06-28T08:36:02.140Z,70.74
2023-06-28T08:44:33.121Z,70.58
2023-06-28T08:53:06.396Z,70.84
2023-06-28T09:01:32.998Z,70.56
2023-06-28T09:09:57.717Z,70.70
2023-06-28T09:18:21.007Z,70.72
2023-06-28T09:26:47.675Z,70.64
2023-06-28T09:35:14.467Z,70.63
2023-06-28T09:43:38.497Z,70.63
2023-06-28T09:52:04.600Z,70.70
2023-06-28T10:00:30.273Z,70.71
2023-06-28T10:08:55.064Z,70.87
2023-06-28T10:17:18.897Z,70.78
2023-06-28T10:25:43.016Z,70.70
2023-06-28T10:34:08.679Z,70.84
2023-06-28T10:42:40.375Z,70.75
2023-06-28T10:51:07.394Z,70.65
2023-06-28T10:59:30.523Z,70.63
2023-06-28T11:07:53.498Z,70.78
2023-06-28T11:16:23.213Z,70.75
2023-06-28T11:24:47.273Z,70.76
2023-06-28T11:33:12.650Z,71.00
2023-06-28T11:41:36.366Z,70.78
2023-06-28T11:49:59.391Z,70.87
2023-06-28T11:58:40.386Z,70.82
2023-06-28T12:07:07.737Z,71.00
2023-06-28T12:15:30.851Z,70.79
2023-06-28T12:23:54.830Z,70.74
2023-06-28T12:32:21.737Z,71.01
2023-06-28T12:40:46.721Z,70.78
2023-06-28T12:49:09.931Z,70.71
2023-06-28T12:57:32.959Z,70.65
2023-06-28T13:05:56.410Z,70.76
2023-06-28T13:14:21.234Z,70.86
2023-06-28T13:22:44.452Z,71.09
2023-06-28T13:31:07.558Z,71.13
2023-06-28T13:39:31.310Z,70.87
2023-06-28T13:47:54.368Z,70.99
2023-06-28T13:56:17.408Z,70.84
2023-06-28T14:04:40.423Z,70.84
2023-06-28T14:13:03.859Z,70.72
2023-06-28T14:21:26.840Z,70.85
2023-06-28T14:29:49.952Z,70.68
2023-06-28T14:38:13.191Z,70.66
2023-06-28T14:46:36.347Z,70.60
2023-06-28T14:54:59.419Z,70.73
2023-06-28T15:03:25.152Z,70.73
2023-06-28T15:11:48.868Z,70.71
2023-06-28T15:20:16.027Z,70.64
2023-06-28T15:28:45.814Z,70.81
2023-06-28T15:37:09.218Z,70.90
2023-06-28T15:45:34.645Z,70.99
2023-06-28T15:53:58.161Z,70.57
2023-06-28T16:02:21.273Z,70.81
2023-06-28T16:10:44.666Z,70.82
2023-06-28T16:19:07.876Z,70.61
2023-06-28T16:27:30.943Z,70.75
2023-06-28T16:35:53.895Z,70.75
2023-06-28T16:44:17.473Z,70.68
2023-06-28T16:52:40.420Z,70.79
2023-06-28T17:01:03.983Z,70.40
2023-06-28T17:09:27.889Z,70.49
2023-06-28T17:17:50.862Z,70.36
2023-06-28T17:26:13.991Z,70.45
2023-06-28T17:34:37.688Z,70.32
2023-06-28T17:43:00.685Z,70.31
2023-06-28T17:51:24.847Z,70.14
2023-06-28T17:59:47.866Z,70.32
2023-06-28T18:08:10.893Z,70.24
2023-06-28T18:16:34.364Z,70.30
2023-06-28T18:24:57.415Z,70.18
2023-06-28T18:33:23.226Z,70.01
2023-06-28T18:41:47.053Z,70.09
2023-06-28T18:50:12.262Z,70.10
2023-06-28T18:58:37.512Z,70.02
2023-06-28T19:07:02.225Z,70.07
2023-06-28T19:15:25.842Z,69.96
2023-06-28T19:23:48.845Z,70.07
2023-06-28T19:32:11.987Z,70.06
2023-06-28T19:40:36.128Z,70.18
2023-06-28T19:48:59.380Z,69.98
2023-06-28T19:57:22.548Z,70.11
2023-06-28T20:05:45.663Z,69.94
2023-06-28T20:14:10.214Z,69.92
2023-06-28T20:22:36.144Z,69.98
2023-06-28T20:30:59.204Z,69.91
2023-06-28T20:39:22.277Z,70.06
2023-06-28T20:47:46.542Z,69.90
2023-06-28T20:56:13.348Z,69.75
2023-06-28T21:04:37.148Z,69.91
2023-06-28T21:13:00.793Z,70.00
2023-06-28T21:21:23.900Z,69.95
2023-06-28T21:29:46.948Z,69.78
2023-06-28T21:38:10.003Z,69.74
2023-06-28T21:46:33.338Z,69.82
2023-06-28T21:54:56.242Z,69.85
2023-06-28T22:03:19.300Z,69.79
2023-06-28T22:11:43.198Z,69.68
2023-06-28T22:20:10.650Z,69.86
2023-06-28T22:28:34.602Z,69.77
2023-06-28T22:36:57.586Z,69.88
2023-06-28T22:45:20.522Z,69.70
2023-06-28T22:53:48.751Z,69.72
2023-06-28T23:02:12.753Z,69.79
2023-06-28T23:10:35.891Z,69.72
2023-06-28T23:19:03.258Z,69.79
2023-06-28T23:27:28.411Z,69.73
2023-06-28T23:35:51.420Z,69.82
2023-06-28T23:44:15.477Z,69.95
2023-06-28T23:52:39.629Z,69.95
